Time;durP1;ratioP1;P1;durP2;ratioP2;P2;SDS_P1;SDS_P2;PMS_P1;PMS_P2;Temp;Humidity;BMP_temperature;BMP_pressure;BME280_temperature;BME280_humidity;BME280_pressure;Samples;Min_cycle;Max_cycle;Signal;HPM_P1;HPM_P2
2021/11/12 00:02:13;;;;;;;15.55;11.77;;;9.60;99.90;;;;;;5087724;28;20040;-74
2021/11/12 00:04:08;;;;;;;15.75;11.75;;;9.60;99.90;;;;;;5086674;28;20487;-70
2021/11/12 00:14:46;;;;;;;20.92;10.65;;;9.60;99.90;;;;;;5080491;28;20048;-74
2021/11/12 00:17:14;;;;;;;;;;;9.70;99.90;;;;;;5088080;28;20047;-74
2021/11/12 00:19:41;;;;;;;12.98;9.05;;;9.60;99.90;;;;;;5069355;28;19988;-74
2021/11/12 00:22:08;;;;;;;14.50;10.65;;;9.60;99.90;;;;;;5082313;28;20486;-74
2021/11/12 00:24:35;;;;;;;12.25;9.30;;;9.70;99.90;;;;;;5088317;28;20054;-74
2021/11/12 00:27:04;;;;;;;15.38;9.80;;;9.60;99.90;;;;;;5090391;28;20487;-74
2021/11/12 00:29:36;;;;;;;12.95;8.38;;;9.60;99.90;;;;;;5070887;28;20480;-74
2021/11/12 00:40:04;;;;;;;11.05;8.85;;;9.60;99.90;;;;;;5088014;28;20506;-74
2021/11/12 00:42:55;;;;;;;13.93;8.75;;;9.60;99.90;;;;;;5087658;28;20048;-73
2021/11/12 00:45:25;;;;;;;10.93;7.20;;;9.60;99.90;;;;;;5087830;28;20040;-75
2021/11/12 00:48:09;;;;;;;9.82;7.57;;;9.60;99.90;;;;;;5085714;28;20096;-74
2021/11/12 00:55:41;;;;;;;10.82;6.20;;;9.60;99.90;;;;;;5091628;28;20341;-74
2021/11/12 00:58:10;;;;;;;9.63;5.78;;;9.60;99.90;;;;;;5091020;28;20051;-75
2021/11/12 01:00:37;;;;;;;9.90;6.20;;;9.50;99.90;;;;;;5091478;28;20047;-74
2021/11/12 01:03:05;;;;;;;10.00;6.57;;;9.50;99.90;;;;;;5091583;28;20175;-74
2021/11/12 01:05:32;;;;;;;12.13;6.63;;;9.50;99.90;;;;;;5089810;28;20044;-72
2021/11/12 01:08:02;;;;;;;10.77;6.97;;;9.50;99.90;;;;;;5091939;28;20052;-74
2021/11/12 01:10:29;;;;;;;11.43;6.13;;;9.60;99.90;;;;;;5090980;28;20071;-71
2021/11/12 01:12:58;;;;;;;12.77;6.35;;;9.60;99.90;;;;;;5092078;28;20067;-73
2021/11/12 01:15:25;;;;;;;13.32;6.22;;;9.60;99.90;;;;;;5091421;28;20497;-74
2021/11/12 01:17:53;;;;;;;11.45;6.47;;;9.60;99.90;;;;;;5089897;28;20044;-74
2021/11/12 01:20:20;;;;;;;10.88;6.90;;;9.70;99.90;;;;;;5072106;28;20101;-75
2021/11/12 01:22:48;;;;;;;8.90;6.75;;;9.70;99.90;;;;;;5090985;28;20059;-75
2021/11/12 01:25:16;;;;;;;11.90;6.93;;;9.70;99.90;;;;;;5073306;28;20127;-74
2021/11/12 01:27:43;;;;;;;10.02;6.88;;;9.80;99.90;;;;;;5091026;28;20407;-74
2021/11/12 01:30:12;;;;;;;13.13;6.95;;;9.80;99.90;;;;;;5089744;28;20116;-73
2021/11/12 01:32:39;;;;;;;13.65;7.70;;;9.80;99.90;;;;;;5073460;28;20048;-73
2021/11/12 01:35:06;;;;;;;12.18;8.27;;;9.80;99.90;;;;;;5090362;28;20048;-73
2021/11/12 01:37:34;;;;;;;15.10;8.20;;;9.90;99.90;;;;;;5089484;28;20059;-73
2021/11/12 01:40:06;;;;;;;14.90;10.13;;;9.90;99.90;;;;;;5091148;28;20051;-73
2021/11/12 01:42:55;;;;;;;12.20;8.02;;;9.90;99.90;;;;;;5090139;28;20048;-73
2021/11/12 01:45:31;;;;;;;16.73;8.30;;;9.90;99.90;;;;;;5089972;28;21721;-73
2021/11/12 01:50:29;;;;;;;13.27;8.30;;;9.90;99.90;;;;;;5091585;28;20066;-74
2021/11/12 01:53:07;;;;;;;15.30;8.20;;;9.90;99.90;;;;;;5097893;28;20055;-74
2021/11/12 01:58:27;;;;;;;13.50;9.30;;;9.80;99.90;;;;;;5078927;28;20044;-73
2021/11/12 02:00:54;;;;;;;13.00;8.77;;;9.80;99.90;;;;;;5080304;28;20082;-74
2021/11/12 02:03:21;;;;;;;17.80;10.00;;;9.80;99.90;;;;;;5072834;28;20505;-74
2021/11/12 02:05:51;;;;;;;17.38;8.68;;;9.80;99.90;;;;;;5089409;28;20044;-74
2021/11/12 02:08:18;;;;;;;14.25;9.38;;;9.80;99.90;;;;;;5089860;28;20101;-71
2021/11/12 02:10:45;;;;;;;14.80;8.63;;;9.70;99.90;;;;;;5089018;28;20379;-73
2021/11/12 02:13:16;;;;;;;13.82;8.32;;;9.70;99.90;;;;;;5091479;28;20090;-71
2021/11/12 02:15:44;;;;;;;12.70;8.55;;;9.70;99.90;;;;;;5091458;28;20105;-72
2021/11/12 02:18:16;;;;;;;14.90;8.45;;;9.70;99.90;;;;;;5090833;28;20044;-74
2021/11/12 02:20:58;;;;;;;13.80;8.45;;;9.70;99.90;;;;;;5087595;28;20040;-73
2021/11/12 02:23:50;;;;;;;15.52;9.88;;;9.60;99.90;;;;;;5090526;28;20071;-74
2021/11/12 02:26:24;;;;;;;14.13;8.60;;;9.60;99.90;;;;;;5078125;28;20070;-74
2021/11/12 02:28:57;;;;;;;16.50;9.43;;;9.60;99.90;;;;;;5089444;28;20044;-74
2021/11/12 02:31:25;;;;;;;15.82;9.70;;;9.60;99.90;;;;;;5089527;28;20047;-74
2021/11/12 02:33:54;;;;;;;18.47;9.93;;;9.50;99.90;;;;;;5089115;28;20093;-73
2021/11/12 02:36:23;;;;;;;17.90;10.15;;;9.50;99.90;;;;;;5084231;28;20292;-74
2021/11/12 02:38:52;;;;;;;15.30;8.73;;;9.50;99.90;;;;;;5089461;28;20044;-74
2021/11/12 02:41:19;;;;;;;15.60;8.98;;;9.50;99.90;;;;;;5089678;28;20081;-74
2021/11/12 02:43:47;;;;;;;15.52;10.07;;;9.50;99.90;;;;;;5090197;28;20506;-73
2021/11/12 02:46:16;;;;;;;13.57;9.38;;;9.50;99.90;;;;;;5091510;28;20040;-74
2021/11/12 02:48:43;;;;;;;20.60;10.48;;;9.50;99.90;;;;;;5091023;28;20052;-74
2021/11/12 02:51:14;;;;;;;18.30;10.00;;;9.40;99.90;;;;;;5088779;28;20155;-73
2021/11/12 02:53:42;;;;;;;18.08;10.15;;;9.40;99.90;;;;;;5091768;28;20070;-74
2021/11/12 02:56:15;;;;;;;14.65;8.95;;;9.40;99.90;;;;;;5089059;28;20468;-73
2021/11/12 02:58:42;;;;;;;14.55;9.65;;;9.40;99.90;;;;;;5088768;28;20051;-74
2021/11/12 03:01:09;;;;;;;17.50;9.93;;;9.40;99.90;;;;;;5071709;28;20051;-73
2021/11/12 03:03:37;;;;;;;20.00;9.55;;;9.50;99.90;;;;;;5087419;28;20044;-73
2021/11/12 03:06:04;;;;;;;18.50;9.93;;;9.50;99.90;;;;;;5084913;28;20059;-72
2021/11/12 03:08:31;;;;;;;16.73;10.80;;;9.50;99.90;;;;;;5090741;28;20051;-72
2021/11/12 03:10:58;;;;;;;19.98;10.48;;;9.50;99.90;;;;;;5068590;28;20056;-72
2021/11/12 03:13:26;;;;;;;16.98;9.70;;;9.50;99.90;;;;;;5090652;28;20063;-72
2021/11/12 03:15:53;;;;;;;15.38;9.95;;;9.50;99.90;;;;;;5091066;28;20058;-73
2021/11/12 03:18:21;;;;;;;17.20;10.27;;;9.50;99.90;;;;;;5088886;28;20563;-70
2021/11/12 03:20:48;;;;;;;18.95;11.18;;;9.50;99.90;;;;;;5090005;28;20454;-74
2021/11/12 03:23:18;;;;;;;22.08;10.85;;;9.50;99.90;;;;;;5085610;28;20047;-74
2021/11/12 03:26:18;;;;;;;22.30;12.13;;;9.50;99.90;;;;;;5086943;28;20044;-74
2021/11/12 03:46:56;;;;;;;17.83;11.15;;;9.60;99.90;;;;;;5062201;28;20495;-75
2021/11/12 04:02:06;;;;;;;22.30;12.20;;;9.60;99.90;;;;;;5088614;28;20056;-72
2021/11/12 04:18:44;;;;;;;23.33;12.63;;;10.00;99.90;;;;;;5088611;28;20111;-74
2021/11/12 05:56:45;;;;;;;15.70;9.35;;;10.90;99.90;;;;;;5090875;28;20394;-72
2021/11/12 05:59:13;;;;;;;24.80;10.63;;;11.00;99.90;;;;;;5073429;28;20048;-73
2021/11/12 06:01:40;;;;;;;21.95;11.27;;;11.00;99.90;;;;;;5074002;28;20048;-72
2021/11/12 06:04:07;;;;;;;20.48;10.02;;;11.10;99.90;;;;;;5090354;28;20052;-74
2021/11/12 06:06:34;;;;;;;15.68;8.50;;;11.20;99.90;;;;;;5091308;28;20825;-73
2021/11/12 06:09:02;;;;;;;20.38;9.02;;;11.20;99.90;;;;;;5091746;28;20070;-72
2021/11/12 06:11:29;;;;;;;19.92;9.93;;;11.30;99.90;;;;;;5090593;28;20044;-73
2021/11/12 06:13:57;;;;;;;17.50;9.20;;;11.30;99.90;;;;;;5092015;28;20044;-73
2021/11/12 06:16:25;;;;;;;11.90;7.30;;;11.30;99.90;;;;;;5057575;28;20051;-73
2021/11/12 06:18:53;;;;;;;12.80;8.23;;;11.30;99.90;;;;;;5092075;28;20411;-73
2021/11/12 06:21:21;;;;;;;17.17;8.25;;;11.30;99.90;;;;;;5091501;28;20055;-72
2021/11/12 06:23:48;;;;;;;18.92;8.63;;;11.40;99.90;;;;;;5090272;28;20044;-74
2021/11/12 06:26:14;;;;;;;15.57;7.82;;;11.40;99.90;;;;;;5073909;28;20052;-72
2021/11/12 06:28:42;;;;;;;13.05;7.30;;;11.30;99.90;;;;;;5091424;28;20048;-73
2021/11/12 06:31:09;;;;;;;19.15;8.48;;;11.40;99.90;;;;;;5092009;28;20055;-74
2021/11/12 06:33:36;;;;;;;18.33;8.93;;;11.40;99.90;;;;;;5091215;28;20044;-73
2021/11/12 06:36:03;;;;;;;16.70;7.53;;;11.50;99.90;;;;;;5073163;28;20071;-74
2021/11/12 06:38:31;;;;;;;16.60;8.15;;;11.50;99.90;;;;;;5089473;28;20134;-73
2021/11/12 06:41:00;;;;;;;14.60;9.25;;;11.50;99.90;;;;;;5089384;28;20496;-73
2021/11/12 06:43:37;;;;;;;15.80;8.23;;;11.60;99.90;;;;;;5091672;28;20047;-73
2021/11/12 06:51:35;;;;;;;17.70;8.35;;;11.60;99.90;;;;;;5091381;28;20052;-75
2021/11/12 06:54:02;;;;;;;14.60;9.07;;;11.60;99.90;;;;;;5086879;28;20051;-74
2021/11/12 06:56:29;;;;;;;20.73;9.30;;;11.60;99.90;;;;;;5090088;28;20052;-74
2021/11/12 06:58:56;;;;;;;14.13;7.85;;;11.60;99.90;;;;;;5090615;28;20085;-73
2021/11/12 07:01:25;;;;;;;17.38;8.65;;;11.60;99.90;;;;;;5089358;28;20044;-74
2021/11/12 07:03:52;;;;;;;54.72;44.92;;;11.60;99.90;;;;;;5088021;28;20476;-72
2021/11/12 07:06:19;;;;;;;22.90;11.40;;;11.60;99.90;;;;;;5086201;28;20052;-71
2021/11/12 07:08:46;;;;;;;16.23;8.40;;;11.60;99.90;;;;;;5089808;28;20053;-69
2021/11/12 07:11:13;;;;;;;14.65;8.25;;;11.70;99.90;;;;;;5073434;28;20051;-69
2021/11/12 07:13:40;;;;;;;12.98;8.27;;;11.70;99.90;;;;;;5087953;28;20102;-71
2021/11/12 07:16:07;;;;;;;12.00;8.40;;;11.70;99.90;;;;;;5090565;28;20098;-70
2021/11/12 07:18:34;;;;;;;14.23;7.68;;;11.70;99.90;;;;;;5091106;28;20123;-71
2021/11/12 07:21:01;;;;;;;13.43;8.15;;;11.70;99.90;;;;;;5088548;28;20048;-71
2021/11/12 07:23:28;;;;;;;14.65;9.10;;;11.70;99.90;;;;;;5094429;28;20052;-71
2021/11/12 07:25:55;;;;;;;14.63;7.55;;;11.70;99.90;;;;;;5090370;28;20116;-71
2021/11/12 07:28:24;;;;;;;18.15;8.95;;;11.70;99.90;;;;;;5089829;28;20102;-69
2021/11/12 07:30:53;;;;;;;17.00;8.70;;;11.80;99.90;;;;;;5072513;28;20096;-69
2021/11/12 07:33:21;;;;;;;;;;;11.70;99.90;;;;;;5089158;28;20346;-69
2021/11/12 07:38:46;;;;;;;11.35;6.88;;;11.80;99.90;;;;;;5089115;28;20054;-72
2021/11/12 07:47:02;;;;;;;18.23;8.77;;;11.90;99.90;;;;;;5039574;28;20055;-73
2021/11/12 07:49:29;;;;;;;16.08;8.57;;;12.00;99.90;;;;;;5089191;28;20044;-72
2021/11/12 07:51:56;;;;;;;13.25;7.22;;;12.00;99.90;;;;;;5092605;28;20063;-78
2021/11/12 07:54:23;;;;;;;14.32;8.40;;;12.00;99.90;;;;;;5090926;28;20051;-78
2021/11/12 07:56:51;;;;;;;18.75;9.60;;;12.00;99.90;;;;;;5090606;28;20056;-79
2021/11/12 07:59:19;;;;;;;19.08;8.90;;;12.10;99.90;;;;;;5079277;28;20048;-76
2021/11/12 08:01:46;;;;;;;17.35;9.95;;;12.10;99.90;;;;;;5070617;28;20052;-76
2021/11/12 08:04:14;;;;;;;16.60;8.35;;;12.10;99.90;;;;;;5069246;28;20485;-78
2021/11/12 08:06:41;;;;;;;15.68;9.07;;;12.10;99.90;;;;;;5085279;28;20133;-72
2021/11/12 08:09:14;;;;;;;20.80;9.60;;;12.10;99.90;;;;;;5087058;28;20048;-77
2021/11/12 08:11:46;;;;;;;13.48;8.73;;;12.10;99.90;;;;;;5087334;28;20050;-82
2021/11/12 08:19:19;;;;;;;19.98;10.00;;;12.20;99.90;;;;;;5071723;28;20419;-71
2021/11/12 08:27:26;;;;;;;22.35;10.57;;;12.30;99.90;;;;;;5087125;28;20131;-70
2021/11/12 08:30:05;;;;;;;21.55;11.43;;;12.30;99.90;;;;;;5088894;28;20088;-70
2021/11/12 08:43:05;;;;;;;19.10;12.60;;;12.30;99.90;;;;;;5090381;28;20044;-76
2021/11/12 08:45:29;;;;;;;26.48;11.43;;;12.10;99.90;;;;;;5088972;28;20050;-78
2021/11/12 08:48:06;;;;;;;20.90;10.75;;;12.10;99.90;;;;;;5090142;28;20040;-74
2021/11/12 08:50:34;;;;;;;22.35;11.50;;;12.10;99.90;;;;;;5088972;28;20044;-77
2021/11/12 08:53:07;;;;;;;20.67;11.30;;;12.10;99.90;;;;;;5070319;28;20078;-78
2021/11/12 08:55:35;;;;;;;26.63;11.90;;;12.10;99.90;;;;;;5064397;28;20087;-75
2021/11/12 08:58:02;;;;;;;21.15;11.60;;;12.10;99.90;;;;;;5089247;28;20067;-72
2021/11/12 09:00:31;;;;;;;23.00;11.18;;;12.10;99.90;;;;;;5089472;28;20135;-74
2021/11/12 09:02:58;;;;;;;18.65;11.23;;;12.10;99.90;;;;;;5088641;28;20559;-72
2021/11/12 09:05:25;;;;;;;19.77;10.45;;;12.10;99.90;;;;;;5089062;28;20396;-74
2021/11/12 09:07:53;;;;;;;20.75;10.77;;;12.10;99.90;;;;;;5072017;28;20056;-75
2021/11/12 09:10:21;;;;;;;15.80;10.02;;;12.10;99.90;;;;;;5092050;28;20048;-72
2021/11/12 09:12:54;;;;;;;21.55;9.90;;;12.20;99.90;;;;;;5092662;28;20463;-73
2021/11/12 09:15:30;;;;;;;18.63;10.07;;;12.20;99.90;;;;;;5093781;28;20058;-72
2021/11/12 09:17:58;;;;;;;15.68;8.15;;;12.20;99.90;;;;;;5093945;28;20101;-73
2021/11/12 09:20:25;;;;;;;18.90;9.20;;;12.30;99.90;;;;;;5075343;28;20051;-72
2021/11/12 09:22:53;;;;;;;15.35;8.65;;;12.20;99.90;;;;;;5097187;28;20082;-73
2021/11/12 09:25:21;;;;;;;13.57;7.45;;;12.20;99.90;;;;;;5091795;28;20044;-72
2021/11/12 09:27:48;;;;;;;12.10;7.18;;;12.30;99.90;;;;;;5092185;28;20133;-72
2021/11/12 09:30:24;;;;;;;9.57;7.47;;;12.30;99.90;;;;;;5074853;28;20125;-72
2021/11/12 09:32:54;;;;;;;13.07;7.88;;;12.30;99.90;;;;;;5092140;28;20088;-72
2021/11/12 09:35:22;;;;;;;13.45;6.68;;;12.40;99.90;;;;;;5092852;28;20091;-72
2021/11/12 09:37:49;;;;;;;10.40;6.10;;;12.40;99.90;;;;;;5091861;28;20071;-72
2021/11/12 09:40:15;;;;;;;12.00;6.15;;;12.40;99.90;;;;;;5091907;28;20048;-71
2021/11/12 09:42:42;;;;;;;8.10;6.10;;;12.40;99.90;;;;;;5074939;28;20054;-71
2021/11/12 09:45:10;;;;;;;12.80;6.50;;;12.40;99.90;;;;;;5091948;28;20044;-72
2021/11/12 09:47:38;;;;;;;9.07;6.38;;;12.40;99.90;;;;;;5091886;28;20063;-70
2021/11/12 09:50:07;;;;;;;7.28;5.60;;;12.50;99.90;;;;;;5060558;28;20052;-71
2021/11/12 09:52:35;;;;;;;;;;;12.60;99.90;;;;;;5096773;28;20048;-71
2021/11/12 09:55:02;;;;;;;7.75;5.63;;;12.60;99.90;;;;;;5092318;28;19920;-71
2021/11/12 09:57:30;;;;;;;9.55;5.25;;;12.60;99.90;;;;;;5091750;28;20052;-72
2021/11/12 10:00:01;;;;;;;8.82;4.32;;;12.60;99.90;;;;;;5074760;28;20108;-71
2021/11/12 10:02:33;;;;;;;5.93;4.32;;;12.60;99.90;;;;;;5091348;28;20491;-72
2021/11/12 10:05:00;;;;;;;6.85;4.57;;;12.60;99.90;;;;;;5091157;28;20113;-71
2021/11/12 10:07:32;;;;;;;5.63;4.57;;;12.60;99.90;;;;;;5091385;28;20044;-71
2021/11/12 10:10:08;;;;;;;7.20;4.68;;;12.60;99.90;;;;;;5091279;28;20055;-71
2021/11/12 10:12:40;;;;;;;6.25;4.60;;;12.60;99.90;;;;;;5075997;28;20048;-72
2021/11/12 10:15:31;;;;;;;6.90;5.18;;;12.60;99.90;;;;;;5091269;28;20541;-72
2021/11/12 10:18:06;;;;;;;9.13;4.57;;;12.60;99.90;;;;;;5092232;28;20056;-71
2021/11/12 10:20:33;;;;;;;5.20;4.00;;;12.60;99.90;;;;;;5089473;28;20052;-72
2021/11/12 10:23:16;;;;;;;5.60;3.60;;;12.60;99.90;;;;;;5095484;28;20064;-71
2021/11/12 10:26:16;;;;;;;7.30;4.22;;;12.60;99.90;;;;;;5090797;28;20487;-73
2021/11/12 10:28:44;;;;;;;24.27;20.42;;;12.60;99.90;;;;;;5048198;28;20052;-73
2021/11/12 10:31:19;;;;;;;8.38;5.25;;;12.60;99.90;;;;;;5092415;28;20179;-74
2021/11/12 10:33:50;;;;;;;6.35;4.97;;;12.70;99.90;;;;;;5090647;28;20055;-72
2021/11/12 10:36:18;;;;;;;6.88;3.88;;;12.60;99.90;;;;;;5074485;28;20056;-71
2021/11/12 10:38:47;;;;;;;6.38;4.00;;;12.70;99.90;;;;;;5090217;28;20048;-71
2021/11/12 10:41:14;;;;;;;4.53;3.63;;;12.70;99.90;;;;;;5091139;28;20174;-71
2021/11/12 10:43:41;;;;;;;9.45;3.92;;;12.70;99.90;;;;;;5102479;28;20048;-72
2021/11/12 10:46:08;;;;;;;6.70;4.05;;;12.70;99.90;;;;;;5112386;28;20056;-72
2021/11/12 10:48:36;;;;;;;4.75;3.90;;;12.80;99.90;;;;;;5111041;28;20058;-72
2021/11/12 10:51:19;;;;;;;8.30;4.03;;;12.80;99.90;;;;;;5094267;28;20487;-72
2021/11/12 10:53:53;;;;;;;4.93;3.67;;;12.90;99.90;;;;;;5080693;28;20097;-72
2021/11/12 10:56:21;;;;;;;6.93;3.63;;;12.90;99.90;;;;;;5090752;28;20055;-72
2021/11/12 10:59:01;;;;;;;6.32;3.40;;;12.90;99.90;;;;;;5090673;28;20052;-73
2021/11/12 11:01:36;;;;;;;4.35;3.38;;;12.90;99.90;;;;;;5074404;28;20047;-73
2021/11/12 11:04:19;;;;;;;4.47;3.17;;;13.00;99.90;;;;;;5073478;28;20127;-75
2021/11/12 11:06:49;;;;;;;4.18;2.70;;;13.10;99.90;;;;;;5079015;28;20059;-74
2021/11/12 11:09:19;;;;;;;4.05;2.88;;;13.10;99.90;;;;;;5087501;28;20052;-71
2021/11/12 11:11:47;;;;;;;3.65;2.45;;;13.10;99.90;;;;;;5088983;28;20040;-74
2021/11/12 11:14:33;;;;;;;2.97;2.47;;;13.20;99.90;;;;;;5088750;28;20062;-74
2021/11/12 11:17:26;;;;;;;4.72;2.70;;;13.20;99.90;;;;;;5089184;28;20288;-74
2021/11/12 11:19:56;;;;;;;4.15;2.08;;;13.20;99.90;;;;;;5072352;28;20048;-73
2021/11/12 11:22:24;;;;;;;5.28;2.45;;;13.20;99.90;;;;;;5090225;28;20055;-74
2021/11/12 11:24:51;;;;;;;4.95;2.88;;;13.30;99.90;;;;;;5088150;28;20108;-74
2021/11/12 11:27:18;;;;;;;4.25;2.97;;;13.40;99.90;;;;;;5088989;28;20051;-72
2021/11/12 11:29:45;;;;;;;6.13;2.50;;;13.40;99.90;;;;;;5088391;28;20048;-71
2021/11/12 11:32:13;;;;;;;6.22;2.30;;;13.40;99.90;;;;;;5089547;28;20048;-73
2021/11/12 11:34:40;;;;;;;7.57;2.60;;;13.40;99.90;;;;;;5055809;28;20044;-74
2021/11/12 11:37:08;;;;;;;5.55;3.28;;;13.40;99.90;;;;;;5088237;28;20039;-74
2021/11/12 11:39:35;;;;;;;7.50;2.42;;;13.40;99.90;;;;;;5089309;28;20067;-74
2021/11/12 11:42:04;;;;;;;8.57;2.78;;;13.50;99.90;;;;;;5089882;28;20081;-73
2021/11/12 11:44:32;;;;;;;9.43;3.67;;;13.40;99.90;;;;;;5091253;28;20044;-74
2021/11/12 11:46:59;;;;;;;9.38;4.28;;;13.40;99.90;;;;;;5100571;28;20048;-72
2021/11/12 11:49:28;;;;;;;11.55;2.83;;;13.50;99.90;;;;;;5093524;28;20079;-72
2021/11/12 11:51:57;;;;;;;8.45;3.55;;;13.50;99.90;;;;;;5109402;28;20055;-72
2021/11/12 11:54:26;;;;;;;10.48;3.03;;;13.60;99.90;;;;;;5069423;28;20048;-73
2021/11/12 11:57:00;;;;;;;8.75;3.58;;;13.60;99.90;;;;;;5068576;28;20056;-72
2021/11/12 11:59:29;;;;;;;9.25;2.88;;;13.60;99.90;;;;;;5072188;28;20047;-73
2021/11/12 12:02:03;;;;;;;13.65;3.53;;;13.70;99.90;;;;;;5082237;28;20052;-73
2021/11/12 12:04:38;;;;;;;8.35;2.70;;;13.80;99.90;;;;;;5082335;28;20052;-72
2021/11/12 12:07:18;;;;;;;17.08;5.05;;;13.80;99.90;;;;;;5054490;28;20041;-71
2021/11/12 12:09:52;;;;;;;64.22;47.05;;;13.80;99.90;;;;;;5069987;28;20089;-74
2021/11/12 12:12:31;;;;;;;9.02;4.07;;;13.80;99.90;;;;;;5088531;28;20044;-70
2021/11/12 12:15:21;;;;;;;9.30;4.15;;;13.80;99.90;;;;;;5090071;28;20055;-73
2021/11/12 12:17:50;;;;;;;9.48;3.85;;;13.70;99.90;;;;;;5083675;28;20088;-69
2021/11/12 13:23:12;;;;;;;34.90;21.60;;;13.60;99.90;;;;;;5103662;28;20052;-75
2021/11/12 13:25:46;;;;;;;20.77;6.97;;;13.60;99.90;;;;;;5074402;28;20483;-75
2021/11/12 13:28:21;;;;;;;28.90;8.32;;;13.70;99.90;;;;;;5092363;28;20056;-75
2021/11/12 13:31:01;;;;;;;31.90;6.60;;;13.70;99.90;;;;;;5069920;28;20052;-75
2021/11/12 13:33:43;;;;;;;24.05;7.63;;;13.80;99.90;;;;;;5091538;28;20056;-76
2021/11/12 13:36:19;;;;;;;23.17;5.78;;;13.80;99.90;;;;;;5092264;28;20071;-74
2021/11/12 13:38:52;;;;;;;24.95;6.70;;;13.90;99.90;;;;;;5089184;28;20503;-78
2021/11/12 13:41:21;;;;;;;23.35;7.18;;;14.00;99.90;;;;;;5093529;28;20150;-79
2021/11/12 13:43:49;;;;;;;28.67;6.47;;;14.10;99.90;;;;;;5093162;28;20127;-80
2021/11/12 13:46:16;;;;;;;20.23;6.75;;;14.10;99.90;;;;;;5093111;28;20455;-78
2021/11/12 13:48:52;;;;;;;23.20;5.88;;;14.10;99.90;;;;;;5091354;28;20525;-77
2021/11/12 13:51:30;;;;;;;28.45;7.28;;;14.20;99.90;;;;;;5071591;28;20108;-80
2021/11/12 13:53:57;;;;;;;25.38;7.25;;;14.30;99.90;;;;;;5111167;28;20051;-80
2021/11/12 13:56:25;;;;;;;29.92;7.18;;;14.30;99.90;;;;;;5098950;28;20450;-79
2021/11/12 13:59:09;;;;;;;24.85;7.65;;;14.30;99.90;;;;;;5091873;28;20044;-76
2021/11/12 14:01:37;;;;;;;26.50;7.70;;;14.30;99.90;;;;;;5085652;28;20049;-76
2021/11/12 14:04:23;;;;;;;21.52;7.55;;;14.20;99.90;;;;;;5090757;28;20044;-76
2021/11/12 14:06:52;;;;;;;23.27;6.88;;;14.20;99.90;;;;;;5092399;28;20036;-75
2021/11/12 14:09:25;;;;;;;84.95;52.78;;;14.20;99.90;;;;;;5091941;28;20134;-76
2021/11/12 14:12:04;;;;;;;37.50;14.32;;;14.20;99.90;;;;;;5090778;28;20046;-75
2021/11/12 14:14:33;;;;;;;26.58;7.40;;;14.30;99.70;;;;;;5091457;28;20059;-77
2021/11/12 14:17:15;;;;;;;25.40;7.90;;;14.30;99.90;;;;;;5074181;28;20121;-77
2021/11/12 14:20:09;;;;;;;27.17;7.35;;;14.20;99.30;;;;;;5090864;28;20487;-74
2021/11/12 14:22:45;;;;;;;27.80;9.40;;;14.20;99.90;;;;;;5099888;28;20123;-75
2021/11/12 14:28:16;;;;;;;30.85;8.23;;;14.20;99.40;;;;;;5113339;28;20403;-76
2021/11/12 14:36:30;;;;;;;32.40;8.05;;;14.10;99.80;;;;;;5092665;28;20052;-78
2021/11/12 14:38:41;;;;;;;25.55;7.97;;;14.10;99.60;;;;;;5085643;28;20554;-76
2021/11/12 14:46:27;;;;;;;31.35;9.02;;;14.00;99.10;;;;;;5071466;28;20086;-75
2021/11/12 14:51:46;;;;;;;33.22;9.38;;;14.00;98.70;;;;;;5073441;28;20052;-78
2021/11/12 14:54:14;;;;;;;145.77;93.40;;;14.00;97.90;;;;;;5094600;28;20498;-75
2021/11/12 14:56:49;;;;;;;50.90;27.23;;;14.00;98.70;;;;;;5094096;28;20055;-75
2021/11/12 14:59:18;;;;;;;30.35;9.35;;;14.00;97.90;;;;;;5099163;28;20044;-77
2021/11/12 15:01:45;;;;;;;33.97;10.88;;;13.90;98.60;;;;;;5091625;28;20063;-67
2021/11/12 15:04:12;;;;;;;32.00;10.40;;;13.90;98.80;;;;;;5090222;28;20059;-68
2021/11/12 15:06:39;;;;;;;42.15;8.43;;;13.80;99.30;;;;;;5089676;28;20131;-69
2021/11/12 15:09:22;;;;;;;36.97;11.93;;;13.80;99.80;;;;;;5090954;28;20067;-69
2021/11/12 15:11:51;;;;;;;41.17;10.55;;;13.70;99.90;;;;;;5075861;28;20051;-70
2021/11/12 15:14:24;;;;;;;29.52;8.82;;;13.60;99.90;;;;;;5080977;28;20048;-70
2021/11/12 15:17:11;;;;;;;42.45;8.68;;;13.50;99.90;;;;;;5087015;28;20056;-74
2021/11/12 15:19:43;;;;;;;33.10;9.10;;;13.50;99.90;;;;;;5089724;28;20120;-73
2021/11/12 15:28:02;;;;;;;41.85;14.38;;;13.40;99.90;;;;;;5088684;28;20518;-75
2021/11/12 15:30:43;;;;;;;53.78;18.25;;;13.40;99.90;;;;;;5089189;28;20067;-73
2021/11/12 15:33:15;;;;;;;100.95;57.00;;;13.40;99.90;;;;;;5086969;28;20054;-73
2021/11/12 15:35:44;;;;;;;39.08;11.60;;;13.40;99.90;;;;;;5090006;28;20052;-69
2021/11/12 15:38:22;;;;;;;36.30;9.40;;;13.30;99.90;;;;;;5098771;28;20461;-77
2021/11/12 15:40:58;;;;;;;27.58;8.27;;;13.30;99.90;;;;;;5089730;28;20082;-75
2021/11/12 15:46:24;;;;;;;30.23;8.48;;;13.30;99.90;;;;;;5061395;28;20155;-78
2021/11/12 15:48:52;;;;;;;29.88;8.23;;;13.20;99.90;;;;;;5096380;28;20074;-74
2021/11/12 15:51:36;;;;;;;26.92;7.60;;;13.20;99.90;;;;;;5092202;28;20054;-73
2021/11/12 15:56:56;;;;;;;25.75;9.32;;;13.20;99.90;;;;;;5089295;28;20166;-74
2021/11/12 16:25:32;;;;;;;23.38;7.70;;;12.90;99.90;;;;;;5092554;28;20405;-72
2021/11/12 16:28:02;;;;;;;23.95;8.82;;;12.80;99.90;;;;;;5089418;28;20117;-71
2021/11/12 16:30:33;;;;;;;26.77;7.53;;;12.80;99.90;;;;;;5087731;28;20396;-71
2021/11/12 16:33:01;;;;;;;24.65;6.72;;;12.80;99.90;;;;;;5069056;28;20051;-72
2021/11/12 16:35:32;;;;;;;27.80;7.40;;;12.70;99.90;;;;;;5076903;28;20064;-71
2021/11/12 16:38:22;;;;;;;29.42;8.90;;;12.70;99.90;;;;;;5085116;28;20056;-71
2021/11/12 16:40:59;;;;;;;27.00;6.43;;;12.70;99.90;;;;;;5094883;28;20061;-71
2021/11/12 16:54:53;;;;;;;38.17;9.18;;;12.70;99.90;;;;;;5067228;28;20471;-71
2021/11/12 17:00:34;;;;;;;26.30;7.25;;;12.70;99.90;;;;;;5069133;28;20051;-71
2021/11/12 17:46:40;;;;;;;30.98;8.32;;;12.60;99.90;;;;;;5073214;28;20044;-70
2021/11/12 17:49:34;;;;;;;26.42;7.60;;;12.60;99.90;;;;;;5073250;28;20127;-70
2021/11/12 18:03:27;;;;;;;22.92;7.22;;;12.60;99.90;;;;;;5067615;28;20090;-71
2021/11/12 18:06:01;;;;;;;21.52;6.32;;;12.60;99.90;;;;;;5071347;28;20100;-71
2021/11/12 18:11:42;;;;;;;;;;;12.70;99.90;;;;;;5072350;28;20090;-70
2021/11/12 18:14:26;;;;;;;15.60;5.93;;;12.70;99.90;;;;;;5090083;28;20050;-70
2021/11/12 18:22:24;;;;;;;16.92;5.13;;;12.60;99.90;;;;;;5079213;28;20047;-75
2021/11/12 21:45:16;;;;;;;5.88;1.80;;;12.40;99.90;;;;;;5092439;28;20089;-73
2021/11/12 21:47:43;;;;;;;4.70;2.00;;;12.40;99.90;;;;;;5093175;28;20044;-72
2021/11/12 21:50:11;;;;;;;4.55;1.80;;;12.40;99.90;;;;;;5091475;28;20594;-72
2021/11/12 21:52:37;;;;;;;4.68;2.13;;;12.40;99.90;;;;;;5091559;28;20060;-72
2021/11/12 21:55:07;;;;;;;5.25;2.00;;;12.40;99.90;;;;;;5092458;28;20044;-72
2021/11/12 21:57:34;;;;;;;6.43;1.92;;;12.40;99.90;;;;;;5090633;28;20067;-72
2021/11/12 22:00:04;;;;;;;6.55;2.10;;;12.40;99.90;;;;;;5092850;28;20114;-72
2021/11/12 22:02:31;;;;;;;42.40;37.97;;;12.40;99.90;;;;;;5090571;28;20581;-73
2021/11/12 22:04:58;;;;;;;24.35;16.38;;;12.40;99.90;;;;;;5091013;28;20044;-71
2021/11/12 22:07:25;;;;;;;16.38;11.52;;;12.40;99.90;;;;;;5090663;28;20509;-72
2021/11/12 22:09:52;;;;;;;8.00;3.00;;;12.50;99.90;;;;;;5090752;28;20059;-72
2021/11/12 22:12:20;;;;;;;4.63;2.30;;;12.50;99.90;;;;;;5090873;28;20063;-72
2021/11/12 22:14:46;;;;;;;5.65;2.30;;;12.40;99.90;;;;;;5087486;28;20467;-70
2021/11/12 22:17:14;;;;;;;6.28;2.15;;;12.40;99.90;;;;;;5090627;28;20134;-70
2021/11/12 22:19:40;;;;;;;5.07;1.98;;;12.40;99.90;;;;;;5092566;28;20052;-71
2021/11/12 22:22:08;;;;;;;7.82;3.05;;;12.40;99.90;;;;;;5093880;28;20055;-71
2021/11/12 22:24:35;;;;;;;8.52;2.40;;;12.40;99.90;;;;;;5091339;28;20054;-72
2021/11/12 22:27:02;;;;;;;7.28;2.72;;;12.40;99.90;;;;;;5092242;28;20095;-71
2021/11/12 22:29:29;;;;;;;10.60;3.05;;;12.40;99.90;;;;;;5092739;28;20060;-69
2021/11/12 22:32:16;;;;;;;6.68;2.80;;;12.40;99.90;;;;;;5099112;28;20046;-71
2021/11/12 22:34:43;;;;;;;8.18;2.75;;;12.40;99.90;;;;;;5091586;28;20067;-71
2021/11/12 22:37:10;;;;;;;10.48;4.50;;;12.40;99.90;;;;;;5090578;28;20240;-72
2021/11/12 22:39:37;;;;;;;9.32;2.95;;;12.40;99.90;;;;;;5092129;28;20040;-72
2021/11/12 22:42:05;;;;;;;6.57;2.67;;;12.40;99.90;;;;;;5091851;28;20078;-72
2021/11/12 22:44:33;;;;;;;12.48;3.55;;;12.40;99.90;;;;;;5090138;28;20039;-72
2021/11/12 22:47:00;;;;;;;8.70;3.42;;;12.30;99.90;;;;;;5090218;28;20499;-72
2021/11/12 22:49:27;;;;;;;157.27;108.55;;;12.20;99.90;;;;;;5091239;28;20483;-74
2021/11/12 22:51:54;;;;;;;14.55;9.32;;;12.20;99.90;;;;;;5091530;28;20579;-72
2021/11/12 22:54:21;;;;;;;15.38;9.15;;;12.20;99.90;;;;;;5069647;28;20048;-72
2021/11/12 22:56:48;;;;;;;14.00;6.93;;;12.10;99.90;;;;;;5089910;28;20048;-73